Time;durP1;ratioP1;P1;durP2;ratioP2;P2;SDS_P1;SDS_P2;PMS_P1;PMS_P2;Temp;Humidity;BMP_temperature;BMP_pressure;BME280_temperature;BME280_humidity;BME280_pressure;Samples;Min_cycle;Max_cycle;Signal;HPM_P1;HPM_P2
2022/11/18 00:01:25;;;;;;;5.88;1.33;;;8.80;99.90;;;;;;5064093;28;20086;-69
2022/11/18 00:03:51;;;;;;;6.57;1.77;;;8.80;99.90;;;;;;5064388;28;20032;-69
2022/11/18 00:06:22;;;;;;;5.78;1.38;;;8.80;99.90;;;;;;5067680;28;20120;-69
2022/11/18 00:08:47;;;;;;;7.53;1.63;;;8.90;99.90;;;;;;5067466;28;20090;-69
2022/11/18 00:14:22;;;;;;;8.82;1.77;;;8.90;99.90;;;;;;5067353;28;20548;-69
2022/11/18 00:16:55;;;;;;;7.70;1.67;;;8.90;99.90;;;;;;5048763;28;20067;-69
2022/11/18 00:19:23;;;;;;;9.13;1.80;;;8.90;99.90;;;;;;5065755;28;20515;-69
2022/11/18 00:21:50;;;;;;;5.95;1.42;;;9.00;99.90;;;;;;5067576;28;20059;-68
2022/11/18 00:24:15;;;;;;;5.60;1.60;;;9.00;99.90;;;;;;5050310;28;20119;-69
2022/11/18 00:26:41;;;;;;;14.07;2.05;;;9.00;99.90;;;;;;5049864;28;20123;-69
2022/11/18 00:29:09;;;;;;;6.82;1.80;;;9.00;99.90;;;;;;5067382;28;20028;-69
2022/11/18 00:31:35;;;;;;;6.30;1.77;;;9.10;99.90;;;;;;5048952;28;20040;-69
2022/11/18 00:34:01;;;;;;;6.78;1.35;;;9.10;99.90;;;;;;5049393;28;20031;-69
2022/11/18 00:36:28;;;;;;;7.90;1.65;;;9.10;99.90;;;;;;5067252;28;20479;-69
2022/11/18 00:38:53;;;;;;;8.32;1.45;;;9.10;99.90;;;;;;5067634;28;20486;-69
2022/11/18 00:41:19;;;;;;;5.85;1.42;;;9.20;99.90;;;;;;5067517;28;20032;-69
2022/11/18 00:43:45;;;;;;;5.78;1.30;;;9.30;99.90;;;;;;5067395;28;20032;-69
2022/11/18 00:46:11;;;;;;;7.50;1.50;;;9.30;99.90;;;;;;5048973;28;20025;-69
2022/11/18 00:48:38;;;;;;;7.30;1.30;;;9.30;99.90;;;;;;5066347;28;20557;-69
2022/11/18 00:51:16;;;;;;;4.55;1.20;;;9.40;99.90;;;;;;5066732;28;20036;-69
2022/11/18 00:53:42;;;;;;;5.88;1.25;;;9.40;99.90;;;;;;5066117;28;20033;-69
2022/11/18 00:56:08;;;;;;;6.22;1.70;;;9.40;99.90;;;;;;5065362;28;20035;-69
2022/11/18 00:58:34;;;;;;;6.82;1.15;;;9.40;99.90;;;;;;5043604;28;20016;-69
2022/11/18 01:01:00;;;;;;;8.32;1.45;;;9.60;99.90;;;;;;5065657;28;20040;-69
2022/11/18 01:03:27;;;;;;;5.88;1.50;;;9.60;99.90;;;;;;5065322;28;20032;-69
2022/11/18 01:05:53;;;;;;;7.47;1.40;;;9.60;99.90;;;;;;5065383;28;20031;-69
2022/11/18 01:08:19;;;;;;;5.32;1.40;;;9.60;99.90;;;;;;5064835;28;20029;-68
2022/11/18 01:10:46;;;;;;;5.82;1.05;;;9.60;99.90;;;;;;5048234;28;20043;-69
2022/11/18 01:13:21;;;;;;;5.35;0.98;;;9.60;99.90;;;;;;5064778;28;20032;-70
2022/11/18 01:15:55;;;;;;;5.68;1.20;;;9.60;99.90;;;;;;5062729;28;20017;-70
2022/11/18 01:18:27;;;;;;;9.02;1.27;;;9.60;99.90;;;;;;5064873;28;20402;-70
2022/11/18 01:20:53;;;;;;;6.85;1.20;;;9.60;99.90;;;;;;5045967;28;20533;-70
2022/11/18 01:23:19;;;;;;;8.02;1.20;;;9.70;99.90;;;;;;5065935;28;20538;-70
2022/11/18 01:25:46;;;;;;;6.93;1.33;;;9.70;99.90;;;;;;5066422;28;20055;-70
2022/11/18 01:28:13;;;;;;;5.68;1.00;;;9.70;99.90;;;;;;5065481;28;20244;-70
2022/11/18 01:30:40;;;;;;;9.57;1.65;;;9.70;99.90;;;;;;5064517;28;20045;-70
2022/11/18 01:33:06;;;;;;;7.03;1.02;;;9.80;99.90;;;;;;5065682;28;20036;-69
2022/11/18 01:35:41;;;;;;;6.63;2.05;;;9.80;99.90;;;;;;5047199;28;20106;-70
2022/11/18 01:38:09;;;;;;;4.88;1.50;;;9.80;99.90;;;;;;5066415;28;20033;-70
2022/11/18 01:40:35;;;;;;;4.82;1.08;;;9.80;99.90;;;;;;5065682;28;20493;-70
2022/11/18 01:43:01;;;;;;;5.25;1.02;;;9.80;99.90;;;;;;5064488;28;20044;-70
2022/11/18 01:45:49;;;;;;;5.93;1.10;;;9.80;99.90;;;;;;5062542;28;20033;-69
2022/11/18 01:48:23;;;;;;;5.00;1.00;;;9.80;99.90;;;;;;5065549;28;20025;-70
2022/11/18 01:50:58;;;;;;;6.13;1.05;;;9.80;99.90;;;;;;5059754;28;20037;-70
2022/11/18 01:53:27;;;;;;;5.10;1.02;;;9.90;99.90;;;;;;5044893;28;20729;-70
2022/11/18 01:55:56;;;;;;;6.20;1.02;;;9.90;99.90;;;;;;5047240;28;20445;-70
2022/11/18 01:58:29;;;;;;;6.88;1.10;;;9.90;99.90;;;;;;5065794;28;20025;-70
2022/11/18 02:00:55;;;;;;;4.53;1.10;;;9.90;99.90;;;;;;5064167;28;20025;-70
2022/11/18 02:03:22;;;;;;;4.97;1.10;;;9.90;99.90;;;;;;5046740;28;20488;-70
2022/11/18 02:05:51;;;;;;;6.70;1.38;;;9.90;99.90;;;;;;5065228;28;20032;-70
2022/11/18 02:08:18;;;;;;;5.75;1.60;;;9.90;99.90;;;;;;5043714;28;20028;-70
2022/11/18 02:10:44;;;;;;;5.88;1.10;;;9.90;99.90;;;;;;5064002;28;20040;-71
2022/11/18 02:13:11;;;;;;;7.70;1.10;;;9.90;99.90;;;;;;5047350;28;20076;-70
2022/11/18 02:15:55;;;;;;;7.15;1.38;;;9.90;99.90;;;;;;5065678;28;20039;-70
2022/11/18 02:18:23;;;;;;;6.53;1.20;;;9.90;99.90;;;;;;5065311;28;20032;-70
2022/11/18 02:20:54;;;;;;;10.98;1.30;;;9.90;99.90;;;;;;5065297;28;20089;-68
2022/11/18 02:24:06;;;;;;;5.28;1.23;;;9.80;99.90;;;;;;5065843;28;20029;-70
2022/11/18 02:26:35;;;;;;;5.15;0.93;;;9.80;99.90;;;;;;5047039;28;20035;-70
2022/11/18 02:29:03;;;;;;;7.03;1.02;;;9.70;99.90;;;;;;5065216;28;20394;-70
2022/11/18 02:31:50;;;;;;;8.50;1.58;;;9.70;99.90;;;;;;5065612;28;20068;-70
2022/11/18 02:34:41;;;;;;;7.72;1.35;;;9.70;99.90;;;;;;5046598;28;20029;-71
2022/11/18 02:37:18;;;;;;;7.15;0.95;;;9.70;99.90;;;;;;5060222;28;20032;-71
2022/11/18 02:39:52;;;;;;;6.22;1.10;;;9.70;99.90;;;;;;5065166;28;20027;-70
2022/11/18 02:42:19;;;;;;;5.22;1.20;;;9.70;99.90;;;;;;5065859;28;20043;-70
2022/11/18 02:44:51;;;;;;;7.93;1.25;;;9.60;99.90;;;;;;5065516;28;20028;-70
2022/11/18 02:47:17;;;;;;;7.30;0.90;;;9.60;99.90;;;;;;5065007;28;20025;-71
2022/11/18 02:49:50;;;;;;;5.18;1.02;;;9.60;99.90;;;;;;5061583;28;20035;-70
2022/11/18 02:52:17;;;;;;;6.75;1.00;;;9.50;99.90;;;;;;5045107;28;20035;-70
2022/11/18 02:54:47;;;;;;;6.25;1.40;;;9.50;99.90;;;;;;5046226;28;20121;-70
2022/11/18 02:57:14;;;;;;;7.35;1.00;;;9.50;99.90;;;;;;5062869;28;20597;-70
2022/11/18 02:59:39;;;;;;;6.18;1.25;;;9.40;99.90;;;;;;5063268;28;20041;-70
2022/11/18 03:02:05;;;;;;;7.45;0.98;;;9.50;99.90;;;;;;5063251;28;20028;-70
2022/11/18 03:04:33;;;;;;;7.57;1.00;;;9.50;99.90;;;;;;5059995;28;20025;-70
2022/11/18 03:07:29;;;;;;;4.93;1.10;;;9.50;99.90;;;;;;5046108;28;20070;-69
2022/11/18 03:09:56;;;;;;;4.57;0.80;;;9.50;99.90;;;;;;5057487;28;20492;-69
2022/11/18 03:12:30;;;;;;;5.50;0.90;;;9.40;99.90;;;;;;5067477;28;20398;-69
2022/11/18 03:15:23;;;;;;;4.15;0.80;;;9.40;99.90;;;;;;5067784;28;20081;-69
2022/11/18 03:18:29;;;;;;;3.80;0.82;;;9.40;99.90;;;;;;5048931;28;20029;-69
2022/11/18 03:21:07;;;;;;;9.15;1.55;;;9.40;99.90;;;;;;5042667;28;20075;-70
2022/11/18 03:23:40;;;;;;;6.90;1.23;;;9.40;99.90;;;;;;5067374;28;20501;-69
2022/11/18 03:26:19;;;;;;;5.70;0.88;;;9.30;99.90;;;;;;5067780;28;20020;-68
2022/11/18 03:28:51;;;;;;;4.65;0.88;;;9.30;99.90;;;;;;5060736;28;20040;-69
2022/11/18 03:31:26;;;;;;;3.58;0.73;;;9.30;99.90;;;;;;5066770;28;20040;-69
2022/11/18 03:33:58;;;;;;;6.55;1.02;;;9.30;99.90;;;;;;5035064;28;20025;-69
2022/11/18 03:36:28;;;;;;;7.45;1.00;;;9.30;99.90;;;;;;5063995;28;20177;-69
2022/11/18 03:38:59;;;;;;;3.88;1.10;;;9.20;99.90;;;;;;5067829;28;20024;-69
2022/11/18 03:41:27;;;;;;;4.82;1.02;;;9.20;99.90;;;;;;5065886;28;20028;-69
2022/11/18 03:44:00;;;;;;;3.92;0.90;;;9.20;99.90;;;;;;5066139;28;20025;-68
2022/11/18 03:46:37;;;;;;;5.55;1.05;;;9.20;99.90;;;;;;5065580;28;20033;-70
2022/11/18 03:49:06;;;;;;;4.63;1.00;;;9.10;99.90;;;;;;5067459;28;20131;-69
2022/11/18 03:51:49;;;;;;;3.28;0.75;;;9.10;99.90;;;;;;5064535;28;20064;-71
2022/11/18 03:54:20;;;;;;;7.63;1.00;;;9.10;99.90;;;;;;5058607;28;20132;-69
2022/11/18 03:57:10;;;;;;;3.15;0.77;;;9.10;99.90;;;;;;5066940;28;20072;-69
2022/11/18 03:59:44;;;;;;;4.53;0.90;;;9.20;99.90;;;;;;5067485;28;20055;-69
2022/11/18 04:02:16;;;;;;;3.40;0.75;;;9.10;99.90;;;;;;5066898;28;20048;-68
2022/11/18 04:04:44;;;;;;;6.22;0.98;;;9.10;99.90;;;;;;5065930;28;20031;-70
2022/11/18 04:07:31;;;;;;;5.85;0.93;;;9.10;99.90;;;;;;5067310;28;20828;-68
2022/11/18 04:10:01;;;;;;;5.07;0.88;;;9.10;99.90;;;;;;5065557;28;20051;-70
2022/11/18 04:12:32;;;;;;;5.40;0.70;;;9.00;99.90;;;;;;5067040;28;20478;-70
2022/11/18 04:14:58;;;;;;;3.92;0.75;;;9.10;99.90;;;;;;5067064;28;20522;-70
2022/11/18 04:17:27;;;;;;;5.15;0.98;;;9.00;99.90;;;;;;5065710;28;20084;-71
2022/11/18 04:19:53;;;;;;;6.05;0.80;;;9.00;99.90;;;;;;5066522;28;20119;-70
2022/11/18 04:22:19;;;;;;;3.75;0.95;;;9.00;99.90;;;;;;5065747;28;20111;-70
2022/11/18 04:24:45;;;;;;;4.90;0.95;;;9.00;99.90;;;;;;5066259;28;20040;-70
2022/11/18 04:27:10;;;;;;;4.95;1.15;;;8.90;99.90;;;;;;5067104;28;20036;-70
2022/11/18 04:29:36;;;;;;;5.22;0.80;;;9.00;99.90;;;;;;5064971;28;20032;-70
2022/11/18 04:32:03;;;;;;;5.57;1.45;;;8.90;99.90;;;;;;5060749;28;20446;-70
2022/11/18 04:34:29;;;;;;;4.32;1.05;;;9.00;99.90;;;;;;5049645;28;20553;-70
2022/11/18 04:36:55;;;;;;;7.47;1.05;;;9.00;99.90;;;;;;5067628;28;20024;-70
2022/11/18 04:39:20;;;;;;;8.80;1.67;;;9.10;99.90;;;;;;5048520;28;20024;-69
2022/11/18 04:41:55;;;;;;;6.35;1.10;;;9.10;99.90;;;;;;5066065;28;20032;-70
2022/11/18 04:44:24;;;;;;;6.13;1.10;;;9.10;99.90;;;;;;5066111;28;20109;-70
2022/11/18 04:46:51;;;;;;;5.80;1.00;;;9.10;99.90;;;;;;5066935;28;20032;-70
2022/11/18 04:49:17;;;;;;;4.05;0.70;;;9.00;99.90;;;;;;5067120;28;20036;-70
2022/11/18 04:51:44;;;;;;;5.30;0.85;;;9.00;99.90;;;;;;5049239;28;20090;-70
2022/11/18 04:54:10;;;;;;;4.03;0.80;;;9.10;99.90;;;;;;5067044;28;20032;-70
2022/11/18 04:56:36;;;;;;;3.47;1.33;;;9.00;99.90;;;;;;5066970;28;20067;-71
2022/11/18 04:59:03;;;;;;;8.82;1.05;;;9.00;99.90;;;;;;5047312;28;20490;-70
2022/11/18 05:01:29;;;;;;;6.57;1.00;;;9.00;99.90;;;;;;5046703;28;20086;-70
2022/11/18 05:03:55;;;;;;;4.10;0.77;;;8.90;99.90;;;;;;5066778;28;20031;-71
2022/11/18 05:06:21;;;;;;;5.07;0.90;;;9.00;99.90;;;;;;5063461;28;20509;-70
2022/11/18 05:08:47;;;;;;;5.15;1.10;;;9.00;99.90;;;;;;5063530;28;20115;-69
2022/11/18 05:13:57;;;;;;;5.20;1.15;;;8.90;99.90;;;;;;5065647;28;20036;-70
2022/11/18 05:16:22;;;;;;;5.90;0.90;;;8.90;99.90;;;;;;5065494;28;20037;-69
2022/11/18 05:18:48;;;;;;;4.95;0.90;;;8.90;99.90;;;;;;5067113;28;20028;-69
2022/11/18 05:21:13;;;;;;;4.65;1.10;;;8.90;99.90;;;;;;5047880;28;20043;-70
2022/11/18 05:23:39;;;;;;;4.78;1.13;;;8.90;99.90;;;;;;5061524;28;20032;-69
2022/11/18 05:26:07;;;;;;;7.82;1.00;;;8.90;99.90;;;;;;5065444;28;20055;-69
2022/11/18 05:28:33;;;;;;;6.78;1.08;;;9.00;99.90;;;;;;5046832;28;20163;-69
2022/11/18 05:30:58;;;;;;;6.78;0.90;;;9.00;99.90;;;;;;5065338;28;20115;-69
2022/11/18 05:33:24;;;;;;;5.32;0.90;;;9.00;99.90;;;;;;5045974;28;20031;-69
2022/11/18 05:35:49;;;;;;;4.68;1.00;;;9.00;99.90;;;;;;5066497;28;20058;-69
2022/11/18 05:38:15;;;;;;;7.75;1.30;;;9.00;99.90;;;;;;5054841;28;20032;-68
2022/11/18 05:40:42;;;;;;;6.63;0.80;;;9.10;99.90;;;;;;5065445;28;20036;-68
2022/11/18 05:43:10;;;;;;;5.45;1.27;;;9.00;99.90;;;;;;5066191;28;20109;-68
2022/11/18 05:45:37;;;;;;;3.95;0.73;;;9.00;99.90;;;;;;5066093;28;20032;-69
2022/11/18 05:48:03;;;;;;;3.33;0.80;;;9.00;99.90;;;;;;5046500;28;20032;-69
2022/11/18 05:50:30;;;;;;;6.15;1.02;;;9.00;99.90;;;;;;5064986;28;20086;-69
2022/11/18 05:52:57;;;;;;;3.83;1.10;;;8.90;99.90;;;;;;5045391;28;20055;-69
2022/11/18 05:55:26;;;;;;;6.30;1.15;;;8.90;99.90;;;;;;5063338;28;20774;-69
2022/11/18 05:57:51;;;;;;;10.73;1.20;;;8.80;99.90;;;;;;5064231;28;20402;-69
2022/11/18 06:00:17;;;;;;;4.15;1.20;;;8.70;99.90;;;;;;5054454;28;20033;-69
2022/11/18 06:02:45;;;;;;;6.93;1.25;;;8.70;99.90;;;;;;5065707;28;20040;-70
2022/11/18 06:05:11;;;;;;;5.88;1.10;;;8.70;99.90;;;;;;5042414;28;20059;-69
2022/11/18 06:07:42;;;;;;;4.15;0.98;;;8.70;99.90;;;;;;5064094;28;20093;-69
2022/11/18 06:10:19;;;;;;;4.57;0.80;;;8.60;99.90;;;;;;5064312;28;20118;-70
2022/11/18 06:12:48;;;;;;;4.38;1.10;;;8.60;99.90;;;;;;5062510;28;20021;-69
2022/11/18 06:15:19;;;;;;;7.32;1.33;;;8.60;99.90;;;;;;5064610;28;20027;-68
2022/11/18 06:17:56;;;;;;;5.93;1.00;;;8.60;99.90;;;;;;5065645;28;20144;-69
2022/11/18 06:20:22;;;;;;;2.55;0.70;;;8.60;99.90;;;;;;5065447;28;20056;-69
2022/11/18 06:22:51;;;;;;;8.23;1.70;;;8.60;99.90;;;;;;5065883;28;20729;-69
2022/11/18 06:25:16;;;;;;;6.13;1.15;;;8.50;99.90;;;;;;5064402;28;20024;-70
2022/11/18 06:27:43;;;;;;;5.43;0.90;;;8.50;99.90;;;;;;5064421;28;20074;-69
2022/11/18 06:30:09;;;;;;;5.57;1.08;;;8.50;99.90;;;;;;5065568;28;20046;-69
2022/11/18 06:32:34;;;;;;;5.05;1.05;;;8.50;99.90;;;;;;5065759;28;20651;-69
2022/11/18 06:35:00;;;;;;;6.63;1.00;;;8.50;99.90;;;;;;5065590;28;20036;-69
2022/11/18 06:37:26;;;;;;;5.72;1.13;;;8.40;99.90;;;;;;5065371;28;20028;-69
2022/11/18 06:39:51;;;;;;;4.82;1.17;;;8.40;99.90;;;;;;5046794;28;20040;-69
2022/11/18 06:45:02;;;;;;;3.45;1.00;;;8.50;99.90;;;;;;5064418;28;20036;-69
2022/11/18 06:47:28;;;;;;;6.47;1.50;;;8.50;99.90;;;;;;5069763;28;20119;-69
2022/11/18 06:49:54;;;;;;;7.65;1.45;;;8.50;99.90;;;;;;5069391;28;20108;-69
2022/11/18 06:52:21;;;;;;;7.63;1.30;;;8.50;99.90;;;;;;5051760;28;20743;-69
2022/11/18 06:54:47;;;;;;;4.88;1.30;;;8.50;99.90;;;;;;5069076;28;20138;-69
2022/11/18 06:57:12;;;;;;;9.25;1.25;;;8.50;99.90;;;;;;5068624;28;20056;-69
2022/11/18 06:59:38;;;;;;;8.63;1.50;;;8.50;99.90;;;;;;5048881;28;20048;-69
2022/11/18 07:02:04;;;;;;;5.45;1.30;;;8.50;99.90;;;;;;5066223;28;20449;-69
2022/11/18 07:04:29;;;;;;;4.10;0.90;;;8.50;99.90;;;;;;5076967;28;20975;-70
2022/11/18 07:06:55;;;;;;;9.98;1.10;;;8.50;99.90;;;;;;5049591;28;20059;-69
2022/11/18 07:09:20;;;;;;;7.22;1.15;;;8.40;99.90;;;;;;5067279;28;20538;-70
2022/11/18 07:11:46;;;;;;;6.20;1.23;;;8.50;99.90;;;;;;5049637;28;20043;-69
2022/11/18 07:14:12;;;;;;;6.47;0.88;;;8.50;99.90;;;;;;5066644;28;20052;-70
2022/11/18 07:16:38;;;;;;;7.60;1.48;;;8.50;99.90;;;;;;5068310;28;20032;-70
2022/11/18 07:19:11;;;;;;;6.47;1.20;;;8.50;99.90;;;;;;5066355;28;20029;-69
2022/11/18 07:21:38;;;;;;;9.32;1.77;;;8.40;99.90;;;;;;5065636;28;20059;-70
2022/11/18 07:24:06;;;;;;;6.10;0.93;;;8.40;99.90;;;;;;5064462;28;20954;-69
2022/11/18 07:26:32;;;;;;;8.63;1.30;;;8.40;99.90;;;;;;5050121;28;20055;-70
2022/11/18 07:28:58;;;;;;;4.88;1.13;;;8.40;99.90;;;;;;5068209;28;20486;-69
2022/11/18 07:31:23;;;;;;;9.27;1.20;;;8.50;99.90;;;;;;5067748;28;20036;-70
2022/11/18 07:33:52;;;;;;;9.35;1.30;;;8.50;99.90;;;;;;5068761;28;20444;-70
2022/11/18 07:36:21;;;;;;;10.30;1.15;;;8.50;99.90;;;;;;5068863;28;20024;-69
2022/11/18 07:38:46;;;;;;;7.63;1.15;;;8.50;99.90;;;;;;5067235;28;20040;-69
2022/11/18 07:41:13;;;;;;;6.47;1.17;;;8.50;99.90;;;;;;5066870;28;20024;-69
2022/11/18 07:43:40;;;;;;;8.48;1.42;;;8.60;99.90;;;;;;5048214;28;20497;-69
2022/11/18 07:46:13;;;;;;;7.45;1.45;;;8.60;99.90;;;;;;5065753;28;20024;-69
2022/11/18 07:48:40;;;;;;;6.38;1.15;;;8.70;99.90;;;;;;5064615;28;20111;-69
2022/11/18 07:51:06;;;;;;;5.30;1.13;;;8.70;99.90;;;;;;5066642;28;20059;-69
2022/11/18 07:53:33;;;;;;;8.38;1.83;;;8.70;99.90;;;;;;5061474;28;20071;-70
2022/11/18 07:55:59;;;;;;;8.63;1.30;;;8.80;99.90;;;;;;5046014;28;20094;-69
2022/11/18 07:58:25;;;;;;;6.95;1.10;;;8.90;99.90;;;;;;5064134;28;20067;-71
2022/11/18 08:00:50;;;;;;;6.05;1.20;;;8.90;99.90;;;;;;5065342;28;20060;-69
2022/11/18 08:03:16;;;;;;;7.28;1.35;;;8.90;99.90;;;;;;5066735;28;20044;-69
2022/11/18 08:05:41;;;;;;;7.53;1.38;;;9.00;99.90;;;;;;5066610;28;20066;-70
2022/11/18 08:08:07;;;;;;;7.45;1.50;;;9.00;99.90;;;;;;5066418;28;20051;-69
2022/11/18 08:10:33;;;;;;;7.38;1.23;;;9.00;99.90;;;;;;5061786;28;20110;-69
2022/11/18 08:12:58;;;;;;;7.25;1.40;;;9.00;99.90;;;;;;5047310;28;20428;-69
2022/11/18 08:15:24;;;;;;;7.03;1.40;;;9.00;99.90;;;;;;5068060;28;20036;-69
2022/11/18 08:17:50;;;;;;;6.03;1.17;;;9.00;99.90;;;;;;5067553;28;20029;-70
2022/11/18 08:20:15;;;;;;;11.05;1.52;;;9.10;99.90;;;;;;5064727;28;20043;-69
2022/11/18 08:22:41;;;;;;;5.85;1.35;;;9.10;99.90;;;;;;5071202;28;20036;-69
2022/11/18 08:25:08;;;;;;;7.43;1.02;;;9.20;99.90;;;;;;5043931;28;20032;-70
2022/11/18 08:27:33;;;;;;;7.97;1.20;;;9.20;99.90;;;;;;5066020;28;20036;-70
2022/11/18 08:29:59;;;;;;;7.82;1.30;;;9.30;99.90;;;;;;5049936;28;20033;-69
2022/11/18 08:32:24;;;;;;;4.50;1.00;;;9.40;99.90;;;;;;5067030;28;20089;-69
2022/11/18 08:34:50;;;;;;;4.32;0.98;;;9.50;99.90;;;;;;5068569;28;20390;-69
2022/11/18 08:37:16;;;;;;;6.82;1.05;;;9.60;99.90;;;;;;5050092;28;20036;-69
2022/11/18 08:39:42;;;;;;;6.13;0.90;;;9.70;99.90;;;;;;5067990;28;20033;-69
2022/11/18 08:42:09;;;;;;;7.05;1.25;;;9.80;99.90;;;;;;5067542;28;20033;-70
2022/11/18 08:44:35;;;;;;;5.75;1.13;;;9.90;99.90;;;;;;5067026;28;20470;-69
2022/11/18 08:47:01;;;;;;;8.50;1.30;;;10.20;99.90;;;;;;5067628;28;20040;-69
2022/11/18 08:49:27;;;;;;;7.53;1.60;;;10.60;99.90;;;;;;5067826;28;20025;-69
2022/11/18 08:51:52;;;;;;;8.75;1.90;;;10.90;99.90;;;;;;5067742;28;20102;-69
2022/11/18 08:54:18;;;;;;;9.57;2.03;;;11.20;99.90;;;;;;5067297;28;20542;-70
2022/11/18 08:56:43;;;;;;;7.80;1.90;;;11.50;99.90;;;;;;5067851;28;20105;-70
2022/11/18 08:59:09;;;;;;;12.07;2.22;;;11.70;99.90;;;;;;5067476;28;20035;-69
2022/11/18 09:01:36;;;;;;;9.07;1.75;;;12.00;99.90;;;;;;5067231;28;20502;-70
2022/11/18 09:04:02;;;;;;;8.07;2.28;;;12.40;99.90;;;;;;5066955;28;20130;-69
2022/11/18 09:06:28;;;;;;;8.25;2.80;;;12.80;99.90;;;;;;5067096;28;20040;-70
2022/11/18 09:08:53;;;;;;;9.13;2.80;;;13.10;99.90;;;;;;5066515;28;20036;-69
2022/11/18 09:11:22;;;;;;;10.23;2.80;;;13.50;99.90;;;;;;5067323;28;20040;-70
2022/11/18 09:13:52;;;;;;;6.68;2.10;;;13.80;99.90;;;;;;5067062;28;20120;-70
2022/11/18 09:16:17;;;;;;;8.27;2.55;;;13.70;99.90;;;;;;5049244;28;20028;-70
2022/11/18 09:18:43;;;;;;;6.45;1.35;;;13.80;99.90;;;;;;5049123;28;20024;-70
2022/11/18 09:21:09;;;;;;;7.63;1.58;;;14.00;99.90;;;;;;5066882;28;20040;-70
2022/11/18 09:23:36;;;;;;;5.93;1.10;;;14.10;99.90;;;;;;5066568;28;20127;-70
2022/11/18 09:26:07;;;;;;;8.52;1.52;;;13.90;99.90;;;;;;5049255;28;20090;-70
2022/11/18 09:28:34;;;;;;;5.88;0.90;;;13.80;99.90;;;;;;5048857;28;20563;-70
2022/11/18 09:31:03;;;;;;;7.07;1.40;;;13.80;99.90;;;;;;5066902;28;20502;-69
2022/11/18 09:33:29;;;;;;;;;;;13.70;99.90;;;;;;5067231;28;20025;-68
2022/11/18 09:35:54;;;;;;;5.75;1.17;;;13.80;99.90;;;;;;5048562;28;20046;-70
2022/11/18 09:38:20;;;;;;;7.28;1.00;;;13.80;99.90;;;;;;5048378;28;20566;-71
2022/11/18 09:41:12;;;;;;;6.60;1.30;;;13.60;99.90;;;;;;5066399;28;20025;-71
2022/11/18 09:44:04;;;;;;;7.22;1.10;;;13.90;99.90;;;;;;5066775;28;20086;-68
2022/11/18 09:46:47;;;;;;;7.30;1.38;;;14.20;99.90;;;;;;5048508;28;20028;-68
2022/11/18 09:49:35;;;;;;;6.53;1.08;;;14.80;99.90;;;;;;5048348;28;20063;-68
2022/11/18 09:52:06;;;;;;;8.52;1.20;;;14.40;99.90;;;;;;5066313;28;20075;-69
2022/11/18 09:54:36;;;;;;;5.25;1.23;;;14.00;99.90;;;;;;5066280;28;20040;-69
2022/11/18 09:57:03;;;;;;;4.45;1.05;;;13.70;99.90;;;;;;5048236;28;20469;-69
2022/11/18 09:59:31;;;;;;;8.98;1.33;;;13.50;99.90;;;;;;5066693;28;20479;-69
2022/11/18 10:02:13;;;;;;;6.68;1.15;;;13.30;99.90;;;;;;5066769;28;20104;-69
2022/11/18 10:04:39;;;;;;;5.55;1.00;;;13.60;99.90;;;;;;5066731;28;20028;-71
2022/11/18 10:07:15;;;;;;;6.05;0.93;;;14.30;99.90;;;;;;5048126;28;20032;-70
2022/11/18 10:09:41;;;;;;;6.00;1.30;;;14.20;99.90;;;;;;5066227;28;20466;-70
2022/11/18 10:12:25;;;;;;;4.97;1.02;;;13.80;99.90;;;;;;5066298;28;20032;-69
2022/11/18 10:15:00;;;;;;;6.45;1.20;;;13.40;99.90;;;;;;5048520;28;20025;-69
2022/11/18 10:17:51;;;;;;;5.22;1.10;;;13.10;99.90;;;;;;5048440;28;20063;-70
2022/11/18 10:20:37;;;;;;;4.00;0.82;;;12.90;99.90;;;;;;5068695;28;20024;-70
2022/11/18 10:23:25;;;;;;;6.80;1.17;;;12.90;99.90;;;;;;5050041;28;20052;-70
2022/11/18 10:25:52;;;;;;;6.20;1.23;;;12.90;99.90;;;;;;5070540;28;20035;-70
2022/11/18 10:28:24;;;;;;;5.25;1.10;;;12.80;99.90;;;;;;5070516;28;20108;-70
2022/11/18 10:30:51;;;;;;;5.93;1.30;;;12.80;99.90;;;;;;5052297;28;20038;-69
2022/11/18 10:33:18;;;;;;;4.93;0.90;;;12.80;99.90;;;;;;5070018;28;20039;-69
2022/11/18 10:35:44;;;;;;;6.38;1.40;;;12.80;99.90;;;;;;5051795;28;20025;-69
2022/11/18 10:38:12;;;;;;;7.57;1.00;;;12.80;99.90;;;;;;5070224;28;20065;-69
2022/11/18 10:40:56;;;;;;;5.38;1.00;;;12.80;99.90;;;;;;5052160;28;20037;-70
2022/11/18 10:43:41;;;;;;;6.10;0.95;;;12.80;99.90;;;;;;5052563;28;20047;-69
2022/11/18 10:46:27;;;;;;;6.03;0.93;;;12.80;99.90;;;;;;5070307;28;20016;-68
2022/11/18 10:49:08;;;;;;;5.63;1.23;;;13.00;99.90;;;;;;5069837;28;20037;-71
2022/11/18 10:51:39;;;;;;;5.68;1.20;;;13.00;99.90;;;;;;5069354;28;20391;-71
2022/11/18 10:54:22;;;;;;;5.55;1.10;;;12.90;99.90;;;;;;5069365;28;20796;-71
2022/11/18 10:57:13;;;;;;;6.68;1.30;;;13.20;99.90;;;;;;5069450;28;20078;-71
2022/11/18 10:59:54;;;;;;;5.97;1.27;;;13.30;99.90;;;;;;5051533;28;20056;-71
2022/11/18 11:02:29;;;;;;;5.28;1.20;;;13.60;99.90;;;;;;5069836;28;20036;-71
2022/11/18 11:04:56;;;;;;;5.03;1.00;;;13.50;99.90;;;;;;5070077;28;20020;-70
2022/11/18 11:07:34;;;;;;;5.60;1.23;;;13.60;99.90;;;;;;5069965;28;20030;-71
2022/11/18 11:10:04;;;;;;;5.43;1.20;;;13.60;99.90;;;;;;5069967;28;20033;-70
2022/11/18 11:12:31;;;;;;;;;;;13.60;99.90;;;;;;5070363;28;20470;-69
2022/11/18 11:15:02;;;;;;;6.22;1.00;;;13.60;99.90;;;;;;5069926;28;19967;-69
2022/11/18 11:17:38;;;;;;;5.18;1.08;;;13.60;99.90;;;;;;5051360;28;20028;-71
2022/11/18 11:20:18;;;;;;;5.28;0.88;;;13.60;99.90;;;;;;5069508;28;20391;-70
2022/11/18 11:22:44;;;;;;;6.20;1.13;;;13.50;99.90;;;;;;5051526;28;20025;-71
2022/11/18 11:25:26;;;;;;;6.93;1.08;;;13.30;99.90;;;;;;5069115;28;20032;-70
2022/11/18 11:28:01;;;;;;;5.22;1.20;;;13.10;99.90;;;;;;5069706;28;20654;-71
2022/11/18 11:30:26;;;;;;;7.20;1.38;;;12.90;99.90;;;;;;5069160;28;20130;-70
2022/11/18 11:33:18;;;;;;;5.35;1.20;;;12.70;99.90;;;;;;5049892;28;20070;-70
2022/11/18 11:35:55;;;;;;;6.45;1.33;;;12.60;99.90;;;;;;5068638;28;20028;-70
2022/11/18 11:38:47;;;;;;;5.28;1.00;;;12.50;99.90;;;;;;5068759;28;20029;-71
2022/11/18 11:41:29;;;;;;;4.18;1.00;;;12.50;99.90;;;;;;5068768;28;20029;-70
2022/11/18 11:44:11;;;;;;;4.88;1.15;;;12.50;99.90;;;;;;5069616;28;20024;-70
2022/11/18 11:50:31;;;;;;;10.60;1.23;;;12.50;99.90;;;;;;5026311;28;20072;-70
2022/11/18 11:53:14;;;;;;;5.68;1.10;;;12.50;99.90;;;;;;5050991;28;20090;-70
2022/11/18 11:55:57;;;;;;;6.18;0.90;;;12.50;99.90;;;;;;5068169;28;20067;-70
2022/11/18 11:58:45;;;;;;;4.43;0.98;;;12.50;99.90;;;;;;5069423;28;20035;-71
2022/11/18 12:01:30;;;;;;;3.97;0.77;;;12.60;99.90;;;;;;5069070;28;20533;-71
2022/11/18 12:04:07;;;;;;;4.53;0.93;;;12.70;99.90;;;;;;5068656;28;20070;-70
2022/11/18 12:06:33;;;;;;;4.75;0.98;;;13.00;99.90;;;;;;5050221;28;20461;-71
2022/11/18 12:09:06;;;;;;;5.22;1.00;;;13.20;99.90;;;;;;5068791;28;20048;-70
2022/11/18 12:12:03;;;;;;;5.68;1.08;;;13.10;99.90;;;;;;5068874;28;20040;-70
2022/11/18 12:14:46;;;;;;;5.90;1.10;;;12.90;99.90;;;;;;4995035;28;20093;-71
2022/11/18 12:17:26;;;;;;;3.78;0.90;;;12.80;99.90;;;;;;5067657;28;20424;-70
2022/11/18 12:19:52;;;;;;;5.53;1.20;;;12.70;99.90;;;;;;5049603;28;20036;-71
2022/11/18 12:22:17;;;;;;;6.82;1.05;;;12.70;99.90;;;;;;5065136;28;20074;-70
2022/11/18 12:24:43;;;;;;;3.78;0.70;;;12.70;99.90;;;;;;5060893;28;20079;-71
2022/11/18 12:27:08;;;;;;;5.70;1.23;;;12.60;99.90;;;;;;5046642;28;20468;-71
2022/11/18 12:29:48;;;;;;;5.70;0.90;;;12.60;99.90;;;;;;5048422;28;20116;-71
2022/11/18 12:32:34;;;;;;;;;;;12.50;99.90;;;;;;5048746;28;20033;-71
2022/11/18 12:35:11;;;;;;;4.53;0.90;;;12.50;99.90;;;;;;5047729;28;19905;-71
2022/11/18 12:37:49;;;;;;;5.07;1.10;;;12.60;99.90;;;;;;5048253;28;20681;-70
2022/11/18 12:40:35;;;;;;;5.78;0.73;;;12.60;99.90;;;;;;5048201;28;20044;-70
2022/11/18 12:45:52;;;;;;;5.65;1.00;;;12.70;99.90;;;;;;5047555;28;20075;-69
2022/11/18 12:48:38;;;;;;;3.33;0.98;;;12.70;99.90;;;;;;5048011;28;20071;-69
2022/11/18 12:51:39;;;;;;;5.43;0.85;;;12.70;99.90;;;;;;5047870;28;20063;-71
2022/11/18 12:54:22;;;;;;;3.58;0.80;;;12.80;99.90;;;;;;5047901;28;20116;-70
2022/11/18 12:56:49;;;;;;;5.72;0.95;;;12.80;99.90;;;;;;5047916;28;20044;-70
2022/11/18 12:59:14;;;;;;;4.18;1.00;;;12.80;99.90;;;;;;5046204;28;20036;-71
2022/11/18 13:01:40;;;;;;;6.72;1.42;;;12.80;99.90;;;;;;5047365;28;20037;-69
2022/11/18 13:04:15;;;;;;;6.10;1.08;;;12.80;99.90;;;;;;5047381;28;20036;-69
2022/11/18 13:06:42;;;;;;;4.88;1.02;;;12.90;99.90;;;;;;5047168;28;20360;-71
2022/11/18 13:09:18;;;;;;;5.03;1.10;;;13.10;99.90;;;;;;5046148;28;20021;-69
2022/11/18 13:11:51;;;;;;;3.92;0.80;;;13.20;99.90;;;;;;5047194;28;20048;-69
2022/11/18 13:20:37;;;;;;;5.50;0.90;;;14.20;99.90;;;;;;5047104;28;20120;-69
2022/11/18 13:25:55;;;;;;;3.53;0.90;;;16.20;99.90;;;;;;5047196;28;20052;-70
2022/11/18 13:28:33;;;;;;;6.15;1.10;;;16.20;99.20;;;;;;5046893;28;20388;-70
2022/11/18 13:31:25;;;;;;;4.07;0.90;;;15.50;99.90;;;;;;5046770;28;20139;-71
2022/11/18 13:33:51;;;;;;;3.30;0.70;;;14.60;99.90;;;;;;5046893;28;20025;-71
2022/11/18 13:36:22;;;;;;;2.88;0.80;;;14.10;99.90;;;;;;5047354;28;20633;-70